Time;durP1;ratioP1;P1;durP2;ratioP2;P2;SDS_P1;SDS_P2;PMS_P1;PMS_P2;Temp;Humidity;BMP_temperature;BMP_pressure;BME280_temperature;BME280_humidity;BME280_pressure;Samples;Min_cycle;Max_cycle;Signal;HPM_P1;HPM_P2
2022/03/25 00:01:16;;;;;;;13.63;8.30;;;;;;;6.34;36.03;95333.22;5109763;28;20129;-47
2022/03/25 00:03:43;;;;;;;14.43;7.70;;;;;;;6.33;36.27;95332.44;5110099;28;20469;-50
2022/03/25 00:06:11;;;;;;;19.25;8.57;;;;;;;6.27;36.44;95333.22;5110404;28;20047;-51
2022/03/25 00:08:38;;;;;;;12.95;8.45;;;;;;;6.16;36.76;95326.78;5111805;27;20100;-48
2022/03/25 00:11:04;;;;;;;15.75;8.55;;;;;;;6.09;36.76;95323.38;5116198;27;20039;-45
2022/03/25 00:13:32;;;;;;;20.85;8.77;;;;;;;6.15;36.74;95314.84;5115843;27;20057;-45
2022/03/25 00:15:58;;;;;;;18.70;8.55;;;;;;;6.20;36.58;95307.31;5113265;27;20046;-46
2022/03/25 00:18:25;;;;;;;13.38;6.57;;;;;;;6.16;36.87;95300.91;5117164;27;20046;-47
2022/03/25 00:20:52;;;;;;;15.82;7.82;;;;;;;6.02;37.40;95300.03;5113577;27;20040;-49
2022/03/25 00:23:19;;;;;;;20.23;8.40;;;;;;;5.85;37.63;95309.88;5111591;27;20047;-51
2022/03/25 00:25:45;;;;;;;15.32;7.18;;;;;;;5.70;38.04;95301.41;5117650;27;20149;-48
2022/03/25 00:28:12;;;;;;;13.80;7.90;;;;;;;5.59;38.63;95299.34;5112110;27;20043;-47
2022/03/25 00:30:39;;;;;;;12.55;7.15;;;;;;;5.44;38.81;95305.41;5094790;27;20049;-48
2022/03/25 00:33:07;;;;;;;17.73;7.13;;;;;;;5.34;39.06;95307.50;5114643;27;20039;-47
2022/03/25 00:35:34;;;;;;;17.35;7.75;;;;;;;5.32;39.22;95302.50;5113080;27;20055;-50
2022/03/25 00:38:01;;;;;;;21.63;8.77;;;;;;;5.29;39.32;95299.50;5114382;27;20047;-48
2022/03/25 00:40:31;;;;;;;21.13;9.32;;;;;;;5.28;39.73;95303.09;5090254;27;20070;-49
2022/03/25 00:42:58;;;;;;;15.85;6.93;;;;;;;5.16;39.63;95290.66;5115002;27;20035;-47
2022/03/25 00:45:26;;;;;;;13.70;8.02;;;;;;;5.17;39.84;95304.38;5095944;27;20153;-48
2022/03/25 00:47:53;;;;;;;16.27;7.80;;;;;;;5.02;40.10;95288.94;5117132;27;20520;-47
2022/03/25 00:50:21;;;;;;;16.75;8.13;;;;;;;5.02;40.55;95294.09;5091095;27;20043;-51
2022/03/25 00:52:50;;;;;;;14.77;8.43;;;;;;;4.98;40.61;95285.91;5093140;27;20054;-47
2022/03/25 00:55:18;;;;;;;16.02;7.70;;;;;;;5.02;39.92;95288.94;5087792;27;20051;-47
2022/03/25 00:57:44;;;;;;;24.63;9.88;;;;;;;5.09;39.81;95273.50;5114636;27;20039;-50
2022/03/25 01:00:13;;;;;;;19.55;8.55;;;;;;;5.14;39.53;95266.81;5089130;27;20440;-47
2022/03/25 01:02:40;;;;;;;16.67;8.00;;;;;;;5.31;39.57;95282.03;5093242;27;20050;-50
2022/03/25 01:05:07;;;;;;;19.10;7.35;;;;;;;5.39;39.18;95281.13;5116297;27;20133;-51
2022/03/25 01:07:34;;;;;;;11.32;6.72;;;;;;;5.42;39.00;95276.38;5113346;27;20051;-51
2022/03/25 01:10:02;;;;;;;12.60;6.85;;;;;;;5.42;39.26;95278.97;5114580;27;20045;-52
2022/03/25 01:12:29;;;;;;;15.07;8.07;;;;;;;5.33;39.08;95259.38;5115169;27;20066;-47
2022/03/25 01:14:56;;;;;;;16.73;7.47;;;;;;;5.46;38.95;95269.84;5111696;27;20500;-50
2022/03/25 01:17:22;;;;;;;17.60;7.57;;;;;;;5.49;39.08;95281.56;5114294;27;21961;-49
2022/03/25 01:19:51;;;;;;;15.75;7.07;;;;;;;5.51;38.76;95284.75;5113452;27;20046;-50
2022/03/25 01:22:17;;;;;;;16.35;7.00;;;;;;;5.49;38.92;95279.00;5115956;27;20050;-48
2022/03/25 01:24:44;;;;;;;16.02;8.40;;;;;;;5.50;38.47;95275.44;5091549;27;20050;-52
2022/03/25 01:27:11;;;;;;;15.75;8.55;;;;;;;5.55;38.73;95276.47;5093502;27;20058;-47
2022/03/25 01:29:38;;;;;;;18.73;9.25;;;;;;;5.50;38.79;95276.22;5091631;27;20127;-48
2022/03/25 01:32:08;;;;;;;16.75;8.43;;;;;;;5.43;39.36;95267.63;5088799;27;20043;-51
2022/03/25 01:34:35;;;;;;;16.25;8.02;;;;;;;5.44;39.43;95271.81;5089591;27;20142;-47
2022/03/25 01:37:03;;;;;;;16.05;8.68;;;;;;;5.47;38.98;95268.84;5112139;27;20039;-49
2022/03/25 01:39:30;;;;;;;16.80;8.30;;;;;;;5.61;39.11;95274.13;5112007;27;20058;-52
2022/03/25 01:41:57;;;;;;;20.58;10.40;;;;;;;5.54;39.24;95282.59;5112412;27;20042;-49
2022/03/25 01:44:26;;;;;;;18.08;9.63;;;;;;;5.38;39.36;95282.88;5088536;27;20082;-54
2022/03/25 01:46:57;;;;;;;18.63;8.32;;;;;;;5.29;39.50;95281.41;5113369;27;21872;-51
2022/03/25 01:49:24;;;;;;;15.93;8.90;;;;;;;5.03;39.84;95277.63;5112041;27;20072;-53
2022/03/25 01:51:55;;;;;;;22.50;9.75;;;;;;;4.74;40.81;95281.13;5113639;27;20502;-48
2022/03/25 01:54:27;;;;;;;18.00;10.23;;;;;;;4.44;41.07;95259.78;5113377;27;20544;-48
2022/03/25 01:56:57;;;;;;;15.43;9.05;;;;;;;4.39;41.59;95278.38;5112498;27;20036;-46
2022/03/25 01:59:24;;;;;;;16.75;8.95;;;;;;;4.35;41.76;95262.44;5114813;27;20496;-46
2022/03/25 02:01:54;;;;;;;15.93;9.30;;;;;;;4.47;41.59;95274.91;5111969;27;20085;-50
2022/03/25 02:04:23;;;;;;;18.42;8.30;;;;;;;4.66;40.90;95279.44;5112166;27;20428;-48
2022/03/25 02:06:50;;;;;;;24.25;8.07;;;;;;;4.70;41.07;95278.13;5116741;27;20039;-47
2022/03/25 02:09:17;;;;;;;19.75;8.80;;;;;;;4.65;41.38;95283.03;5090248;28;20044;-48
2022/03/25 02:11:44;;;;;;;15.73;8.02;;;;;;;4.62;41.13;95267.91;5091163;28;20035;-51
2022/03/25 02:14:12;;;;;;;19.05;7.95;;;;;;;4.77;40.95;95276.41;5088481;28;20044;-49
2022/03/25 02:16:42;;;;;;;12.05;6.13;;;;;;;4.96;40.38;95274.19;5087127;27;20051;-47
2022/03/25 02:19:11;;;;;;;16.90;8.15;;;;;;;5.07;40.07;95276.28;5089078;27;20134;-47
2022/03/25 02:21:39;;;;;;;19.52;8.27;;;;;;;5.27;39.46;95280.81;5086282;27;20089;-47
2022/03/25 02:24:09;;;;;;;13.68;6.90;;;;;;;5.40;39.51;95278.31;5091096;27;20817;-48
2022/03/25 02:26:38;;;;;;;11.23;6.70;;;;;;;5.50;39.02;95281.38;5109636;27;20055;-47
2022/03/25 02:29:10;;;;;;;15.15;7.60;;;;;;;5.60;38.96;95285.41;5087396;27;20043;-50
2022/03/25 02:31:37;;;;;;;21.38;7.32;;;;;;;5.55;38.97;95279.03;5092520;28;20069;-48
2022/03/25 02:34:08;;;;;;;13.98;8.18;;;;;;;5.62;38.75;95283.44;5089153;28;20043;-47
2022/03/25 02:36:44;;;;;;;12.52;6.35;;;;;;;5.52;39.26;95282.00;5090010;27;20131;-48
2022/03/25 02:39:13;;;;;;;15.43;7.38;;;;;;;5.42;39.19;95289.28;5088283;27;20040;-52
2022/03/25 02:41:41;;;;;;;16.23;7.70;;;;;;;5.37;39.37;95291.63;5091804;27;20039;-48
2022/03/25 02:44:10;;;;;;;13.38;6.60;;;;;;;5.38;39.27;95288.03;5091520;27;20044;-51
2022/03/25 02:46:41;;;;;;;19.10;7.82;;;;;;;5.29;38.65;95274.47;5094055;27;20131;-50
2022/03/25 02:49:08;;;;;;;14.73;7.13;;;;;;;5.35;39.14;95296.19;5115336;27;20769;-51
2022/03/25 02:51:35;;;;;;;21.48;8.85;;;;;;;5.17;39.61;95301.78;5111963;27;20047;-51
2022/03/25 02:54:02;;;;;;;22.27;8.50;;;;;;;4.90;40.59;95305.91;5109757;27;20496;-50
2022/03/25 02:56:29;;;;;;;18.88;9.18;;;;;;;4.62;41.32;95304.03;5113252;27;20039;-48
2022/03/25 02:58:56;;;;;;;16.70;8.23;;;;;;;4.36;41.51;95309.69;5111905;27;20112;-49
2022/03/25 03:01:23;;;;;;;29.45;8.32;;;;;;;4.06;42.78;95298.59;5108809;27;20446;-53
2022/03/25 03:03:50;;;;;;;13.63;8.27;;;;;;;3.79;42.84;95293.88;5112725;27;20054;-50
2022/03/25 03:06:17;;;;;;;21.10;8.52;;;;;;;3.68;43.83;95301.25;5110728;27;20055;-49
2022/03/25 03:08:44;;;;;;;15.90;7.45;;;;;;;3.49;44.00;95295.59;5107284;27;20047;-47
2022/03/25 03:11:11;;;;;;;20.65;10.35;;;;;;;3.34;44.52;95299.94;5111881;27;20036;-48
2022/03/25 03:13:38;;;;;;;19.67;10.13;;;;;;;3.17;44.81;95305.22;5115334;27;20486;-46
2022/03/25 03:16:06;;;;;;;24.75;10.65;;;;;;;3.08;45.48;95301.13;5110796;27;20051;-48
2022/03/25 03:18:33;;;;;;;14.57;9.20;;;;;;;2.98;45.66;95310.84;5110892;27;20050;-48
2022/03/25 03:20:59;;;;;;;14.57;8.15;;;;;;;2.80;46.67;95308.53;5109358;27;20477;-48
2022/03/25 03:23:26;;;;;;;24.00;9.00;;;;;;;2.70;46.95;95302.81;5112869;27;21720;-52
2022/03/25 03:25:53;;;;;;;15.10;8.45;;;;;;;2.64;47.07;95306.84;5106672;27;20067;-53
2022/03/25 03:28:20;;;;;;;20.63;8.80;;;;;;;2.53;47.63;95297.75;5112264;27;20081;-49
2022/03/25 03:30:46;;;;;;;25.15;11.52;;;;;;;2.36;48.09;95299.63;5110502;28;20693;-50
2022/03/25 03:33:13;;;;;;;29.65;12.82;;;;;;;2.23;48.86;95296.78;5111259;28;20093;-51
2022/03/25 03:35:41;;;;;;;24.02;10.15;;;;;;;2.09;49.04;95301.66;5110980;28;20043;-50
2022/03/25 03:38:08;;;;;;;19.00;10.65;;;;;;;1.98;49.92;95304.59;5110425;28;20054;-49
2022/03/25 03:40:37;;;;;;;19.92;9.43;;;;;;;1.76;49.95;95300.16;5107607;28;20078;-53
2022/03/25 03:43:04;;;;;;;26.92;11.98;;;;;;;1.64;50.84;95300.50;5113383;27;20511;-47
2022/03/25 03:45:34;;;;;;;22.33;9.70;;;;;;;1.53;51.24;95296.50;5111397;27;20051;-50
2022/03/25 03:48:01;;;;;;;16.42;8.68;;;;;;;1.46;51.43;95302.44;5112322;27;20047;-49
2022/03/25 03:50:27;;;;;;;18.90;9.00;;;;;;;1.42;51.87;95301.16;5111146;27;20027;-51
2022/03/25 03:52:54;;;;;;;22.80;9.10;;;;;;;1.28;53.15;95300.06;5115815;27;20096;-48
2022/03/25 03:55:21;;;;;;;17.10;8.57;;;;;;;1.28;53.11;95306.00;5112031;27;20031;-50
2022/03/25 03:57:48;;;;;;;18.95;8.80;;;;;;;1.26;53.28;95305.38;5112199;27;20050;-48
2022/03/25 04:00:15;;;;;;;21.33;8.98;;;;;;;1.18;53.79;95310.47;5110904;27;20470;-45
2022/03/25 04:02:44;;;;;;;18.58;8.43;;;;;;;1.13;53.95;95294.75;5118852;27;20142;-50
2022/03/25 04:05:12;;;;;;;27.98;10.50;;;;;;;1.08;54.13;95300.41;5113125;27;20100;-50
2022/03/25 04:07:44;;;;;;;15.77;8.15;;;;;;;1.06;54.11;95306.63;5116184;27;20046;-51
2022/03/25 04:10:12;;;;;;;19.25;7.85;;;;;;;1.06;54.11;95309.19;5114429;27;20119;-47
2022/03/25 04:12:39;;;;;;;18.90;8.15;;;;;;;1.05;54.26;95302.47;5110925;27;20051;-47
2022/03/25 04:15:10;;;;;;;17.50;8.23;;;;;;;0.97;55.29;95300.69;5111172;27;20504;-49
2022/03/25 04:17:38;;;;;;;26.33;8.88;;;;;;;1.02;55.30;95300.22;5113041;27;20488;-50
2022/03/25 04:20:08;;;;;;;19.27;9.35;;;;;;;0.94;55.62;95290.75;5112106;27;20044;-45
2022/03/25 04:22:34;;;;;;;12.48;7.55;;;;;;;0.93;55.44;95305.34;5111086;27;20040;-47
2022/03/25 04:25:02;;;;;;;19.88;9.73;;;;;;;0.83;55.81;95299.56;5118813;27;20063;-50
2022/03/25 04:27:29;;;;;;;16.05;8.57;;;;;;;0.73;56.35;95309.97;5110536;27;20841;-46
2022/03/25 04:29:55;;;;;;;14.52;9.07;;;;;;;0.69;56.96;95313.00;5111642;27;20063;-48
2022/03/25 04:32:22;;;;;;;26.83;8.32;;;;;;;0.64;56.78;95310.13;5108621;27;20612;-49
2022/03/25 04:34:49;;;;;;;21.55;9.40;;;;;;;0.47;57.81;95304.94;5118184;27;20059;-48
2022/03/25 04:37:15;;;;;;;23.58;11.80;;;;;;;0.45;57.46;95312.00;5114325;27;20126;-46
2022/03/25 04:39:42;;;;;;;19.65;9.52;;;;;;;0.42;57.64;95311.50;5112735;27;20050;-48
2022/03/25 04:42:09;;;;;;;19.92;9.80;;;;;;;0.42;58.18;95314.88;5113860;27;20511;-49
2022/03/25 04:44:36;;;;;;;23.52;9.63;;;;;;;0.43;58.19;95313.91;5117594;27;20047;-48
2022/03/25 04:47:03;;;;;;;20.33;9.15;;;;;;;0.42;58.44;95306.38;5110847;27;20119;-50
2022/03/25 04:49:30;;;;;;;16.00;7.43;;;;;;;0.44;58.54;95310.38;5110459;27;20583;-51
2022/03/25 04:51:56;;;;;;;18.48;7.85;;;;;;;0.48;58.77;95306.53;5110483;27;20044;-47
2022/03/25 04:54:23;;;;;;;18.27;9.43;;;;;;;0.52;59.06;95312.97;5109735;27;20104;-47
2022/03/25 04:56:50;;;;;;;27.08;9.30;;;;;;;0.55;59.58;95317.78;5115475;27;20095;-47
2022/03/25 04:59:17;;;;;;;22.05;8.60;;;;;;;0.62;59.86;95327.41;5115314;27;20142;-48
2022/03/25 05:01:43;;;;;;;20.08;9.85;;;;;;;0.71;59.72;95326.47;5112205;27;20040;-49
2022/03/25 05:04:10;;;;;;;30.40;15.07;;;;;;;0.73;59.49;95319.44;5075769;27;20051;-52
2022/03/25 05:06:37;;;;;;;19.02;9.70;;;;;;;0.81;59.63;95316.88;5108353;27;20533;-48
2022/03/25 05:09:06;;;;;;;20.00;9.20;;;;;;;0.98;58.98;95327.16;5109083;27;20043;-46
2022/03/25 05:11:33;;;;;;;42.50;9.30;;;;;;;1.11;58.23;95337.75;5111858;27;20031;-47
2022/03/25 05:14:00;;;;;;;31.30;10.82;;;;;;;1.17;58.38;95337.13;5114025;27;20122;-46
2022/03/25 05:16:26;;;;;;;26.75;12.55;;;;;;;1.30;58.49;95334.88;5112623;27;20102;-49
2022/03/25 05:18:54;;;;;;;26.50;12.02;;;;;;;1.44;58.24;95330.84;5114713;27;20043;-48
2022/03/25 05:21:21;;;;;;;27.45;10.65;;;;;;;1.56;58.27;95326.19;5116317;27;20038;-50
2022/03/25 05:23:48;;;;;;;26.83;10.77;;;;;;;1.68;57.93;95335.16;5111861;27;20081;-46
2022/03/25 05:26:16;;;;;;;31.45;15.00;;;;;;;1.81;57.64;95333.84;5104342;27;20083;-46
2022/03/25 05:28:48;;;;;;;48.63;23.73;;;;;;;1.92;56.53;95318.09;5111065;27;20046;-49
2022/03/25 05:31:15;;;;;;;41.58;18.48;;;;;;;2.14;55.65;95328.63;5111569;27;20405;-51
2022/03/25 05:33:42;;;;;;;34.40;16.38;;;;;;;2.27;56.19;95334.84;5108008;27;20054;-53
2022/03/25 05:36:10;;;;;;;30.98;14.43;;;;;;;2.42;55.39;95316.94;5106756;27;20069;-49
2022/03/25 05:38:36;;;;;;;36.38;18.55;;;;;;;2.65;55.30;95321.34;5110469;27;20047;-50
2022/03/25 05:41:03;;;;;;;47.60;21.88;;;;;;;2.83;55.12;95329.59;5115234;27;20043;-51
2022/03/25 05:43:30;;;;;;;21.40;11.63;;;;;;;3.03;54.87;95324.00;5110658;27;20267;-51
2022/03/25 05:45:58;;;;;;;32.47;18.30;;;;;;;3.22;55.10;95328.69;5111260;27;20763;-50
2022/03/25 05:48:25;;;;;;;34.58;19.90;;;;;;;3.39;54.54;95334.50;5107394;27;20114;-49
2022/03/25 05:50:52;;;;;;;43.33;26.65;;;;;;;3.61;55.02;95330.28;5114981;27;20040;-51
2022/03/25 05:53:19;;;;;;;34.80;19.92;;;;;;;3.81;53.96;95330.56;5115164;27;20428;-51
2022/03/25 05:55:45;;;;;;;31.40;17.75;;;;;;;4.01;52.01;95325.69;5114138;27;20048;-51
2022/03/25 05:58:13;;;;;;;17.73;8.82;;;;;;;4.19;49.74;95329.69;5109397;27;20051;-52
2022/03/25 06:00:40;;;;;;;20.40;8.43;;;;;;;4.40;48.08;95327.19;5110239;27;20050;-50
2022/03/25 06:03:07;;;;;;;17.02;9.10;;;;;;;4.55;47.33;95323.78;5110355;27;20046;-50
2022/03/25 06:05:35;;;;;;;21.63;9.15;;;;;;;4.81;46.06;95328.47;5112000;27;20043;-48
2022/03/25 06:08:02;;;;;;;19.83;8.90;;;;;;;5.13;45.40;95332.34;5108070;27;20035;-48
2022/03/25 06:10:28;;;;;;;43.30;19.38;;;;;;;5.33;44.76;95342.88;5108786;27;20055;-47
2022/03/25 06:12:55;;;;;;;23.92;10.32;;;;;;;5.61;44.29;95343.88;5111048;27;20051;-49
2022/03/25 06:15:22;;;;;;;15.85;8.80;;;;;;;5.76;44.03;95339.41;5113460;27;20036;-50
2022/03/25 06:17:53;;;;;;;19.52;7.88;;;;;;;5.89;43.55;95336.94;5110646;27;20082;-51
2022/03/25 06:20:24;;;;;;;20.77;7.97;;;;;;;6.22;43.13;95346.69;5108335;27;20039;-47
2022/03/25 06:22:51;;;;;;;14.05;7.45;;;;;;;6.38;42.67;95329.28;5113550;27;20035;-47
2022/03/25 06:25:19;;;;;;;14.23;7.40;;;;;;;6.63;42.49;95348.50;5110400;27;20059;-50
2022/03/25 06:27:46;;;;;;;19.83;8.93;;;;;;;6.81;41.97;95342.00;5113736;27;20055;-50
2022/03/25 06:30:14;;;;;;;25.70;8.88;;;;;;;6.95;42.37;95345.41;5113105;27;20508;-50
2022/03/25 06:32:41;;;;;;;17.30;8.95;;;;;;;7.18;41.27;95345.06;5093398;27;20054;-47
2022/03/25 06:35:09;;;;;;;15.20;7.50;;;;;;;7.40;40.43;95349.09;5111515;27;20051;-48
2022/03/25 06:37:36;;;;;;;15.38;7.82;;;;;;;7.59;40.36;95354.47;5111805;27;20047;-51
2022/03/25 06:40:07;;;;;;;20.13;8.88;;;;;;;7.71;40.28;95352.91;5112472;27;20051;-46
2022/03/25 06:42:35;;;;;;;23.30;9.60;;;;;;;7.80;40.61;95351.69;5112502;27;20770;-47
2022/03/25 06:45:04;;;;;;;20.60;8.55;;;;;;;7.91;39.71;95344.31;5111418;27;20136;-47
2022/03/25 06:47:31;;;;;;;18.70;9.02;;;;;;;8.02;39.50;95352.25;5110023;27;20454;-47
2022/03/25 06:49:58;;;;;;;16.02;9.57;;;;;;;8.15;39.73;95345.47;5114764;27;20040;-51
2022/03/25 06:52:26;;;;;;;16.98;9.55;;;;;;;8.36;39.77;95357.41;5112207;27;20040;-50
2022/03/25 06:54:53;;;;;;;24.55;9.88;;;;;;;8.54;39.44;95354.97;5109059;27;20060;-47
2022/03/25 06:57:20;;;;;;;20.15;10.10;;;;;;;8.91;38.68;95350.06;5110746;27;20043;-48
2022/03/25 06:59:47;;;;;;;15.07;7.85;;;;;;;9.33;35.93;95352.22;5110694;27;20036;-46
2022/03/25 07:02:15;;;;;;;14.95;8.27;;;;;;;9.65;35.68;95347.78;5108675;27;20040;-50
2022/03/25 07:04:43;;;;;;;13.48;8.60;;;;;;;9.89;34.32;95345.41;5111450;27;20466;-46
2022/03/25 07:07:11;;;;;;;13.43;7.00;;;;;;;10.09;34.63;95346.00;5113273;27;20040;-47
2022/03/25 07:09:38;;;;;;;18.80;9.00;;;;;;;10.30;33.86;95342.19;5110850;27;20040;-48
2022/03/25 07:12:06;;;;;;;17.25;9.13;;;;;;;10.43;33.78;95359.53;5109816;27;20531;-46
2022/03/25 07:14:32;;;;;;;13.63;7.32;;;;;;;10.55;33.22;95343.94;5112489;27;20120;-48
2022/03/25 07:16:59;;;;;;;17.30;7.65;;;;;;;10.66;33.07;95353.66;5107171;27;20055;-48
2022/03/25 07:19:26;;;;;;;25.30;8.85;;;;;;;10.75;33.20;95350.75;5109204;27;20046;-47
2022/03/25 07:21:53;;;;;;;15.18;8.35;;;;;;;10.87;33.19;95356.81;5110986;27;20047;-46
2022/03/25 07:24:21;;;;;;;16.75;8.52;;;;;;;11.04;32.33;95347.38;5107506;27;20070;-50
2022/03/25 07:26:48;;;;;;;18.08;9.80;;;;;;;11.24;32.36;95344.50;5108899;28;20466;-49
2022/03/25 07:29:16;;;;;;;18.13;9.38;;;;;;;11.45;30.85;95347.63;5108535;27;20128;-52
2022/03/25 07:31:43;;;;;;;16.30;8.63;;;;;;;11.59;30.06;95371.69;5109981;27;20500;-52
2022/03/25 07:34:09;;;;;;;18.30;8.90;;;;;;;11.70;29.50;95354.47;5108240;28;20050;-47
2022/03/25 07:36:36;;;;;;;19.85;10.55;;;;;;;11.83;29.61;95351.69;5115331;28;20043;-50
2022/03/25 07:39:03;;;;;;;16.38;9.60;;;;;;;11.96;29.70;95348.88;5111401;28;20752;-50
2022/03/25 07:41:30;;;;;;;16.05;9.35;;;;;;;12.01;29.33;95335.94;5108945;28;20048;-49
2022/03/25 07:43:57;;;;;;;13.40;8.40;;;;;;;12.10;28.71;95369.53;5111801;28;20817;-51
2022/03/25 07:46:24;;;;;;;19.90;7.47;;;;;;;12.15;28.67;95340.91;5108130;28;20062;-50
2022/03/25 07:48:51;;;;;;;17.58;9.02;;;;;;;12.27;29.22;95343.53;5107847;28;20516;-50
2022/03/25 07:51:18;;;;;;;13.75;7.55;;;;;;;12.38;28.72;95356.56;5109030;28;20046;-47
2022/03/25 07:53:46;;;;;;;14.73;8.10;;;;;;;12.25;28.80;95330.69;5113896;28;20123;-48
2022/03/25 07:56:12;;;;;;;16.05;8.30;;;;;;;12.54;28.68;95338.59;5108753;28;20116;-45
2022/03/25 07:58:39;;;;;;;19.95;9.80;;;;;;;12.71;28.71;95343.91;5111317;28;20043;-49
2022/03/25 08:01:06;;;;;;;18.42;8.93;;;;;;;12.82;27.56;95341.28;5085503;28;20515;-50
2022/03/25 08:03:33;;;;;;;18.67;9.05;;;;;;;12.71;27.74;95339.50;5109427;28;20039;-47
2022/03/25 08:06:00;;;;;;;17.55;9.13;;;;;;;12.93;28.06;95347.47;5111191;28;20070;-48
2022/03/25 08:08:30;;;;;;;22.80;10.98;;;;;;;13.02;27.97;95350.53;5116244;28;20099;-49
2022/03/25 08:10:58;;;;;;;20.58;11.05;;;;;;;13.15;27.64;95339.78;5110984;28;20081;-45
2022/03/25 08:13:25;;;;;;;17.55;9.43;;;;;;;13.20;27.25;95341.69;5109171;28;20043;-46
2022/03/25 08:15:52;;;;;;;15.20;8.50;;;;;;;13.41;26.88;95331.63;5114636;28;20047;-46
2022/03/25 08:18:20;;;;;;;15.38;9.30;;;;;;;13.43;27.07;95329.53;5109397;28;20781;-47
2022/03/25 08:20:48;;;;;;;18.25;11.05;;;;;;;13.69;26.90;95343.84;5106915;28;20416;-45
2022/03/25 08:28:55;;;;;;;17.80;9.45;;;;;;;13.92;25.90;95322.75;5107418;28;20120;-48
2022/03/25 08:31:41;;;;;;;27.33;9.27;;;;;;;14.13;26.15;95323.03;5110505;27;20054;-51
2022/03/25 08:34:13;;;;;;;18.67;7.47;;;;;;;14.00;25.53;95323.38;5112035;27;20048;-47
2022/03/25 08:36:41;;;;;;;21.92;9.98;;;;;;;14.27;26.04;95318.25;5111902;27;20051;-45
2022/03/25 08:39:08;;;;;;;15.00;8.95;;;;;;;14.43;25.18;95332.34;5110939;27;20044;-51
2022/03/25 08:41:36;;;;;;;17.20;8.23;;;;;;;14.43;25.49;95327.09;5111094;27;20043;-48
2022/03/25 08:44:03;;;;;;;17.60;7.63;;;;;;;14.67;25.33;95311.97;5110964;27;20032;-48
2022/03/25 08:46:30;;;;;;;17.25;8.10;;;;;;;14.65;24.52;95330.53;5114942;27;20047;-47
2022/03/25 08:48:57;;;;;;;17.30;8.50;;;;;;;14.72;24.97;95307.56;5110808;27;20584;-47
2022/03/25 08:51:23;;;;;;;18.30;8.25;;;;;;;14.75;24.37;95302.88;5110217;27;20405;-48
2022/03/25 08:53:50;;;;;;;16.67;9.50;;;;;;;14.89;24.84;95298.81;5109648;27;20036;-50
2022/03/25 08:56:18;;;;;;;15.25;8.43;;;;;;;15.06;24.25;95294.28;5122214;27;20035;-47
2022/03/25 08:58:45;;;;;;;18.02;8.90;;;;;;;15.23;24.12;95309.13;5119075;27;20050;-47
2022/03/25 09:01:12;;;;;;;14.10;7.72;;;;;;;15.02;23.74;95308.16;5109607;27;20143;-51
2022/03/25 09:03:39;;;;;;;13.10;7.97;;;;;;;14.94;24.54;95301.50;5110940;27;20408;-48
2022/03/25 09:06:06;;;;;;;15.88;8.52;;;;;;;15.21;24.33;95295.47;5112338;27;20031;-51
2022/03/25 09:08:33;;;;;;;12.73;7.57;;;;;;;15.35;23.78;95307.16;5116521;27;20051;-48
2022/03/25 09:11:00;;;;;;;12.57;7.28;;;;;;;15.24;24.07;95268.75;5109406;27;20035;-51
2022/03/25 09:13:27;;;;;;;14.27;6.80;;;;;;;15.38;23.63;95303.25;5113978;27;20039;-50
2022/03/25 09:15:54;;;;;;;20.70;9.32;;;;;;;15.27;23.76;95310.25;5111877;27;20047;-47
2022/03/25 09:18:21;;;;;;;19.23;8.40;;;;;;;15.55;23.91;95292.63;5120216;27;20031;-48
2022/03/25 09:20:48;;;;;;;14.00;8.60;;;;;;;15.41;23.31;95297.50;5118563;27;20545;-49
2022/03/25 09:23:15;;;;;;;17.33;7.75;;;;;;;15.26;23.04;95319.16;5091427;27;20051;-50
2022/03/25 09:25:42;;;;;;;16.90;6.53;;;;;;;15.27;23.17;95284.00;5109895;27;20043;-47
2022/03/25 09:28:09;;;;;;;16.48;7.47;;;;;;;15.32;23.29;95289.28;5125288;27;20043;-50
2022/03/25 09:30:36;;;;;;;13.77;7.80;;;;;;;15.57;23.33;95303.66;5113065;27;20401;-47
2022/03/25 09:33:04;;;;;;;13.75;7.95;;;;;;;15.82;22.91;95280.25;5089008;27;20146;-47
2022/03/25 09:35:38;;;;;;;12.75;7.53;;;;;;;15.66;23.19;95275.91;5110786;27;20439;-45
2022/03/25 09:38:05;;;;;;;25.02;6.88;;;;;;;15.58;23.03;95289.50;5109603;27;20048;-47
2022/03/25 09:40:32;;;;;;;13.18;6.35;;;;;;;15.49;22.73;95276.81;5108603;27;20125;-46
2022/03/25 09:42:59;;;;;;;12.82;7.13;;;;;;;15.49;23.17;95297.81;5109578;27;20092;-46
2022/03/25 09:45:30;;;;;;;15.30;7.88;;;;;;;15.67;23.05;95282.75;5108330;27;20047;-50
2022/03/25 09:47:57;;;;;;;12.35;7.07;;;;;;;15.75;22.62;95274.41;5109829;27;20106;-51
2022/03/25 09:50:26;;;;;;;17.55;6.75;;;;;;;15.71;22.90;95277.78;5115094;27;20114;-52
2022/03/25 09:52:53;;;;;;;9.77;5.30;;;;;;;15.81;22.08;95276.03;5109017;27;20036;-51
2022/03/25 09:55:46;;;;;;;12.57;6.55;;;;;;;15.83;22.38;95287.09;5107863;27;20081;-51
2022/03/25 09:58:19;;;;;;;16.92;6.93;;;;;;;15.86;22.24;95273.47;5111774;27;20105;-49
2022/03/25 10:00:50;;;;;;;15.03;8.30;;;;;;;16.04;22.28;95277.50;5115314;27;20047;-51
2022/03/25 10:03:30;;;;;;;18.80;8.77;;;;;;;16.07;22.43;95265.69;5113421;27;20222;-49
2022/03/25 10:05:59;;;;;;;11.73;6.90;;;;;;;16.27;21.34;95280.00;5110968;27;20064;-50
2022/03/25 10:08:44;;;;;;;11.57;6.65;;;;;;;16.06;22.20;95271.97;5108610;27;20071;-51
2022/03/25 10:11:21;;;;;;;13.07;6.72;;;;;;;16.55;22.25;95255.16;5114108;27;20050;-51
2022/03/25 10:13:50;;;;;;;5.18;3.55;;;;;;;16.72;18.66;95255.69;5107388;27;20089;-51
2022/03/25 10:16:30;;;;;;;8.70;4.30;;;;;;;16.98;18.00;95268.97;5111542;27;20084;-47
2022/03/25 10:18:58;;;;;;;9.55;4.70;;;;;;;16.83;17.79;95256.56;5112018;27;20050;-49
2022/03/25 10:21:25;;;;;;;9.07;4.45;;;;;;;17.12;18.78;95259.50;5107895;27;20522;-48
2022/03/25 10:23:52;;;;;;;8.43;5.07;;;;;;;17.14;17.77;95267.94;5110563;27;20051;-51
2022/03/25 10:26:19;;;;;;;8.90;4.43;;;;;;;17.30;18.28;95260.81;5107580;27;20504;-46
2022/03/25 10:28:47;;;;;;;5.22;3.13;;;;;;;17.43;16.81;95259.53;5108286;27;20109;-50
2022/03/25 10:31:19;;;;;;;8.13;4.40;;;;;;;17.15;17.49;95252.94;5118009;27;20042;-51
2022/03/25 10:33:54;;;;;;;14.02;3.90;;;;;;;17.14;16.96;95261.88;5106363;27;20041;-51
2022/03/25 10:36:25;;;;;;;7.70;3.47;;;;;;;16.96;16.40;95265.78;5110850;27;20420;-51
2022/03/25 10:38:58;;;;;;;11.23;4.05;;;;;;;16.84;16.29;95273.94;5109634;27;20449;-51
2022/03/25 10:41:35;;;;;;;7.05;3.20;;;;;;;16.98;16.90;95259.22;5110828;27;20036;-52
2022/03/25 10:44:03;;;;;;;9.00;3.90;;;;;;;17.11;16.43;95257.16;5109868;27;20042;-52
2022/03/25 10:46:33;;;;;;;7.32;3.72;;;;;;;17.27;16.88;95271.91;5109524;27;20056;-47
2022/03/25 10:49:05;;;;;;;8.00;3.80;;;;;;;17.33;15.49;95252.41;5108386;27;20490;-52
2022/03/25 10:51:33;;;;;;;7.20;4.00;;;;;;;17.59;16.25;95257.66;5112316;27;20043;-50
2022/03/25 10:54:07;;;;;;;5.18;3.53;;;;;;;17.59;15.85;95262.94;5114859;27;20118;-47
2022/03/25 10:56:47;;;;;;;5.97;3.55;;;;;;;17.53;16.13;95264.78;5112106;27;20454;-53
2022/03/25 10:59:20;;;;;;;4.45;3.42;;;;;;;17.73;15.14;95263.97;5108378;27;20047;-48
2022/03/25 11:01:50;;;;;;;4.78;2.60;;;;;;;17.61;14.93;95254.78;5107103;27;20073;-49
2022/03/25 11:04:18;;;;;;;7.68;3.05;;;;;;;17.55;15.06;95256.63;5106631;28;20471;-52
2022/03/25 11:06:46;;;;;;;4.45;2.60;;;;;;;17.75;14.35;95246.09;5110652;27;20047;-51
2022/03/25 11:09:14;;;;;;;5.28;2.95;;;;;;;17.67;13.93;95264.25;5110923;27;20075;-50
2022/03/25 11:11:45;;;;;;;4.72;2.80;;;;;;;17.62;13.48;95257.16;5107334;27;20517;-54
2022/03/25 11:14:13;;;;;;;6.20;2.45;;;;;;;17.57;14.08;95230.81;5105776;27;20797;-53
2022/03/25 11:16:45;;;;;;;2.67;1.98;;;;;;;17.72;13.14;95236.06;5105906;28;20043;-51
2022/03/25 11:19:13;;;;;;;7.05;3.17;;;;;;;17.67;13.58;95253.72;5109803;27;20031;-50
2022/03/25 11:21:42;;;;;;;3.38;1.58;;;;;;;17.84;12.84;95251.59;5110306;27;20104;-48
2022/03/25 11:24:16;;;;;;;4.57;2.42;;;;;;;17.87;13.10;95248.44;5112830;27;20046;-52
2022/03/25 11:26:44;;;;;;;;;;;;;;;18.27;12.73;95246.75;5106817;27;20051;-49
2022/03/25 11:29:15;;;;;;;7.28;3.22;;;;;;;18.29;12.55;95249.13;5112905;27;20378;-54
2022/03/25 11:32:05;;;;;;;3.90;2.03;;;;;;;18.32;12.50;95253.88;5107930;27;20044;-49
2022/03/25 11:34:32;;;;;;;3.97;2.20;;;;;;;18.29;12.18;95243.88;5106978;28;20051;-49
2022/03/25 11:37:28;;;;;;;3.95;2.10;;;;;;;18.17;11.76;95246.81;5108272;28;20043;-51
2022/03/25 11:40:13;;;;;;;18.63;5.32;;;;;;;18.22;12.67;95238.09;5106276;28;20042;-51